sensor_id;sensor_type;location;lat;lon;timestamp;P1;durP1;ratioP1;P2;durP2;ratioP2
35223;SDS011;21367;51.930;8.112;2022-12-18T00:01:36;123.60;;;35.75;;
35223;SDS011;21367;51.930;8.112;2022-12-18T00:06:46;122.63;;;34.35;;
35223;SDS011;21367;51.930;8.112;2022-12-18T00:11:57;126.13;;;36.78;;
35223;SDS011;21367;51.930;8.112;2022-12-18T00:17:03;111.82;;;35.67;;
35223;SDS011;21367;51.930;8.112;2022-12-18T00:22:09;127.18;;;37.67;;
35223;SDS011;21367;51.930;8.112;2022-12-18T00:27:15;124.72;;;36.70;;
35223;SDS011;21367;51.930;8.112;2022-12-18T00:32:20;131.52;;;40.58;;
35223;SDS011;21367;51.930;8.112;2022-12-18T00:37:24;112.27;;;36.53;;
35223;SDS011;21367;51.930;8.112;2022-12-18T00:42:33;116.82;;;35.30;;
35223;SDS011;21367;51.930;8.112;2022-12-18T00:47:49;121.57;;;35.15;;
35223;SDS011;21367;51.930;8.112;2022-12-18T00:52:53;122.38;;;34.53;;
35223;SDS011;21367;51.930;8.112;2022-12-18T00:58:00;101.72;;;33.80;;
35223;SDS011;21367;51.930;8.112;2022-12-18T01:03:04;119.90;;;37.38;;
35223;SDS011;21367;51.930;8.112;2022-12-18T01:08:09;134.30;;;39.40;;
35223;SDS011;21367;51.930;8.112;2022-12-18T01:13:17;118.68;;;35.38;;
35223;SDS011;21367;51.930;8.112;2022-12-18T01:18:26;124.18;;;36.42;;
35223;SDS011;21367;51.930;8.112;2022-12-18T01:23:32;106.28;;;32.80;;
35223;SDS011;21367;51.930;8.112;2022-12-18T01:28:39;117.13;;;34.70;;
35223;SDS011;21367;51.930;8.112;2022-12-18T01:33:44;121.93;;;34.58;;
35223;SDS011;21367;51.930;8.112;2022-12-18T01:38:52;117.88;;;34.38;;
35223;SDS011;21367;51.930;8.112;2022-12-18T01:49:45;101.82;;;31.25;;
35223;SDS011;21367;51.930;8.112;2022-12-18T01:54:49;105.63;;;30.60;;
35223;SDS011;21367;51.930;8.112;2022-12-18T01:59:57;111.72;;;31.50;;
35223;SDS011;21367;51.930;8.112;2022-12-18T02:05:17;106.30;;;29.00;;
35223;SDS011;21367;51.930;8.112;2022-12-18T02:10:27;118.32;;;32.33;;
35223;SDS011;21367;51.930;8.112;2022-12-18T02:15:36;97.60;;;27.85;;
35223;SDS011;21367;51.930;8.112;2022-12-18T02:21:00;95.82;;;29.15;;
35223;SDS011;21367;51.930;8.112;2022-12-18T02:26:20;97.32;;;28.17;;
35223;SDS011;21367;51.930;8.112;2022-12-18T02:31:31;90.32;;;26.90;;
35223;SDS011;21367;51.930;8.112;2022-12-18T02:36:45;94.80;;;28.65;;
35223;SDS011;21367;51.930;8.112;2022-12-18T02:41:56;92.28;;;27.25;;
35223;SDS011;21367;51.930;8.112;2022-12-18T02:47:03;94.03;;;28.65;;
35223;SDS011;21367;51.930;8.112;2022-12-18T02:52:11;95.88;;;27.63;;
35223;SDS011;21367;51.930;8.112;2022-12-18T02:57:33;95.47;;;26.05;;
35223;SDS011;21367;51.930;8.112;2022-12-18T03:02:41;90.00;;;26.65;;
35223;SDS011;21367;51.930;8.112;2022-12-18T03:07:51;96.18;;;26.88;;
35223;SDS011;21367;51.930;8.112;2022-12-18T03:13:06;101.00;;;27.30;;
35223;SDS011;21367;51.930;8.112;2022-12-18T03:18:15;84.18;;;26.58;;
35223;SDS011;21367;51.930;8.112;2022-12-18T03:23:24;76.85;;;26.15;;
35223;SDS011;21367;51.930;8.112;2022-12-18T03:28:35;111.63;;;24.85;;
35223;SDS011;21367;51.930;8.112;2022-12-18T03:33:45;80.70;;;24.55;;
35223;SDS011;21367;51.930;8.112;2022-12-18T03:38:58;83.40;;;24.70;;
35223;SDS011;21367;51.930;8.112;2022-12-18T03:44:10;73.88;;;23.75;;
35223;SDS011;21367;51.930;8.112;2022-12-18T03:49:21;72.55;;;23.48;;
35223;SDS011;21367;51.930;8.112;2022-12-18T03:54:30;80.05;;;24.15;;
35223;SDS011;21367;51.930;8.112;2022-12-18T03:59:47;78.10;;;23.75;;
35223;SDS011;21367;51.930;8.112;2022-12-18T04:04:59;77.32;;;23.52;;
35223;SDS011;21367;51.930;8.112;2022-12-18T04:10:10;72.22;;;21.90;;
35223;SDS011;21367;51.930;8.112;2022-12-18T04:15:20;60.90;;;20.70;;
35223;SDS011;21367;51.930;8.112;2022-12-18T04:20:26;78.10;;;23.83;;
35223;SDS011;21367;51.930;8.112;2022-12-18T04:25:30;59.83;;;20.38;;
35223;SDS011;21367;51.930;8.112;2022-12-18T04:30:44;73.38;;;21.15;;
35223;SDS011;21367;51.930;8.112;2022-12-18T04:35:48;78.85;;;23.20;;
35223;SDS011;21367;51.930;8.112;2022-12-18T04:40:53;56.60;;;16.88;;
35223;SDS011;21367;51.930;8.112;2022-12-18T04:46:07;59.28;;;19.33;;
35223;SDS011;21367;51.930;8.112;2022-12-18T04:51:11;62.88;;;18.92;;
35223;SDS011;21367;51.930;8.112;2022-12-18T04:56:17;65.75;;;18.63;;
35223;SDS011;21367;51.930;8.112;2022-12-18T05:01:27;73.55;;;21.13;;
35223;SDS011;21367;51.930;8.112;2022-12-18T05:06:31;60.05;;;19.00;;
35223;SDS011;21367;51.930;8.112;2022-12-18T05:11:39;55.20;;;19.00;;
35223;SDS011;21367;51.930;8.112;2022-12-18T05:16:45;75.70;;;21.50;;
35223;SDS011;21367;51.930;8.112;2022-12-18T05:21:49;70.47;;;21.10;;
35223;SDS011;21367;51.930;8.112;2022-12-18T05:26:53;63.47;;;19.83;;
35223;SDS011;21367;51.930;8.112;2022-12-18T05:32:01;62.60;;;18.02;;
35223;SDS011;21367;51.930;8.112;2022-12-18T05:37:05;58.78;;;17.77;;
35223;SDS011;21367;51.930;8.112;2022-12-18T05:42:09;55.30;;;16.05;;
35223;SDS011;21367;51.930;8.112;2022-12-18T05:47:18;54.50;;;14.88;;
35223;SDS011;21367;51.930;8.112;2022-12-18T05:52:22;43.53;;;14.60;;
35223;SDS011;21367;51.930;8.112;2022-12-18T05:57:26;46.05;;;14.30;;
35223;SDS011;21367;51.930;8.112;2022-12-18T06:02:33;47.95;;;13.82;;
35223;SDS011;21367;51.930;8.112;2022-12-18T06:07:37;43.45;;;13.75;;
35223;SDS011;21367;51.930;8.112;2022-12-18T06:12:43;48.25;;;14.18;;
35223;SDS011;21367;51.930;8.112;2022-12-18T06:17:51;42.53;;;13.15;;
35223;SDS011;21367;51.930;8.112;2022-12-18T06:22:57;40.92;;;13.32;;
35223;SDS011;21367;51.930;8.112;2022-12-18T06:28:01;49.33;;;14.93;;
35223;SDS011;21367;51.930;8.112;2022-12-18T06:33:08;46.85;;;13.88;;
35223;SDS011;21367;51.930;8.112;2022-12-18T06:38:12;40.13;;;11.95;;
35223;SDS011;21367;51.930;8.112;2022-12-18T06:43:16;36.22;;;12.48;;
35223;SDS011;21367;51.930;8.112;2022-12-18T06:48:24;34.22;;;11.23;;
35223;SDS011;21367;51.930;8.112;2022-12-18T06:53:30;35.15;;;10.98;;
35223;SDS011;21367;51.930;8.112;2022-12-18T06:58:35;32.72;;;11.15;;
35223;SDS011;21367;51.930;8.112;2022-12-18T07:03:42;42.57;;;13.20;;
35223;SDS011;21367;51.930;8.112;2022-12-18T07:08:51;40.70;;;12.40;;
35223;SDS011;21367;51.930;8.112;2022-12-18T07:13:56;36.00;;;11.07;;
35223;SDS011;21367;51.930;8.112;2022-12-18T07:19:03;35.72;;;12.95;;
35223;SDS011;21367;51.930;8.112;2022-12-18T07:24:08;42.40;;;12.52;;
35223;SDS011;21367;51.930;8.112;2022-12-18T07:29:11;45.47;;;12.43;;
35223;SDS011;21367;51.930;8.112;2022-12-18T07:34:21;36.83;;;11.85;;
35223;SDS011;21367;51.930;8.112;2022-12-18T07:39:26;35.83;;;11.73;;
35223;SDS011;21367;51.930;8.112;2022-12-18T07:44:30;32.78;;;10.95;;
35223;SDS011;21367;51.930;8.112;2022-12-18T07:54:46;31.67;;;11.82;;
35223;SDS011;21367;51.930;8.112;2022-12-18T07:59:50;53.53;;;13.85;;
35223;SDS011;21367;51.930;8.112;2022-12-18T08:04:54;41.53;;;13.38;;
35223;SDS011;21367;51.930;8.112;2022-12-18T08:10:01;40.35;;;13.38;;
35223;SDS011;21367;51.930;8.112;2022-12-18T08:15:06;39.70;;;13.85;;
35223;SDS011;21367;51.930;8.112;2022-12-18T08:20:11;43.47;;;14.82;;
35223;SDS011;21367;51.930;8.112;2022-12-18T08:25:19;37.70;;;13.00;;
35223;SDS011;21367;51.930;8.112;2022-12-18T08:30:23;53.88;;;16.73;;
35223;SDS011;21367;51.930;8.112;2022-12-18T08:35:27;54.30;;;18.75;;
35223;SDS011;21367;51.930;8.112;2022-12-18T08:40:33;45.03;;;17.23;;
35223;SDS011;21367;51.930;8.112;2022-12-18T08:45:37;52.13;;;16.90;;
35223;SDS011;21367;51.930;8.112;2022-12-18T08:50:41;46.25;;;16.33;;
35223;SDS011;21367;51.930;8.112;2022-12-18T08:55:47;39.03;;;15.73;;
35223;SDS011;21367;51.930;8.112;2022-12-18T09:00:51;43.65;;;15.57;;
35223;SDS011;21367;51.930;8.112;2022-12-18T09:05:55;45.35;;;14.55;;
35223;SDS011;21367;51.930;8.112;2022-12-18T09:11:02;37.38;;;13.80;;
35223;SDS011;21367;51.930;8.112;2022-12-18T09:16:06;47.55;;;15.32;;
35223;SDS011;21367;51.930;8.112;2022-12-18T09:21:12;51.55;;;16.60;;
35223;SDS011;21367;51.930;8.112;2022-12-18T09:26:21;57.47;;;18.25;;
35223;SDS011;21367;51.930;8.112;2022-12-18T09:31:25;58.08;;;18.65;;
35223;SDS011;21367;51.930;8.112;2022-12-18T09:36:28;43.90;;;16.40;;
35223;SDS011;21367;51.930;8.112;2022-12-18T09:47:05;40.90;;;14.55;;
35223;SDS011;21367;51.930;8.112;2022-12-18T09:52:15;38.75;;;14.75;;
35223;SDS011;21367;51.930;8.112;2022-12-18T09:57:25;49.42;;;18.25;;
35223;SDS011;21367;51.930;8.112;2022-12-18T10:02:30;47.58;;;18.10;;
35223;SDS011;21367;51.930;8.112;2022-12-18T10:07:39;43.92;;;15.88;;
35223;SDS011;21367;51.930;8.112;2022-12-18T10:12:55;32.03;;;13.18;;
35223;SDS011;21367;51.930;8.112;2022-12-18T10:18:07;48.20;;;16.95;;
35223;SDS011;21367;51.930;8.112;2022-12-18T10:23:26;37.58;;;14.50;;
35223;SDS011;21367;51.930;8.112;2022-12-18T10:28:38;34.92;;;14.32;;
35223;SDS011;21367;51.930;8.112;2022-12-18T10:33:44;37.42;;;16.30;;
35223;SDS011;21367;51.930;8.112;2022-12-18T10:38:47;33.42;;;13.63;;
35223;SDS011;21367;51.930;8.112;2022-12-18T10:44:10;39.80;;;14.35;;
35223;SDS011;21367;51.930;8.112;2022-12-18T10:49:20;47.35;;;16.63;;
35223;SDS011;21367;51.930;8.112;2022-12-18T10:54:27;42.80;;;15.32;;
35223;SDS011;21367;51.930;8.112;2022-12-18T10:59:49;37.40;;;14.52;;
35223;SDS011;21367;51.930;8.112;2022-12-18T11:04:55;35.88;;;14.20;;
35223;SDS011;21367;51.930;8.112;2022-12-18T11:10:00;31.92;;;13.15;;
35223;SDS011;21367;51.930;8.112;2022-12-18T11:15:13;29.23;;;11.90;;
35223;SDS011;21367;51.930;8.112;2022-12-18T11:20:21;31.85;;;12.25;;
35223;SDS011;21367;51.930;8.112;2022-12-18T11:25:33;31.77;;;13.95;;
35223;SDS011;21367;51.930;8.112;2022-12-18T11:30:40;40.00;;;14.88;;
35223;SDS011;21367;51.930;8.112;2022-12-18T11:35:46;47.10;;;20.48;;
35223;SDS011;21367;51.930;8.112;2022-12-18T11:40:54;32.63;;;13.60;;
35223;SDS011;21367;51.930;8.112;2022-12-18T11:46:05;37.60;;;13.13;;
35223;SDS011;21367;51.930;8.112;2022-12-18T11:51:19;31.37;;;12.93;;
35223;SDS011;21367;51.930;8.112;2022-12-18T11:56:35;30.23;;;11.90;;
35223;SDS011;21367;51.930;8.112;2022-12-18T12:01:48;34.72;;;11.48;;
35223;SDS011;21367;51.930;8.112;2022-12-18T12:06:56;26.02;;;10.60;;
35223;SDS011;21367;51.930;8.112;2022-12-18T12:12:14;31.52;;;10.95;;
35223;SDS011;21367;51.930;8.112;2022-12-18T12:17:34;26.23;;;11.30;;
35223;SDS011;21367;51.930;8.112;2022-12-18T12:22:42;29.95;;;13.45;;
35223;SDS011;21367;51.930;8.112;2022-12-18T12:27:54;34.95;;;14.10;;
35223;SDS011;21367;51.930;8.112;2022-12-18T12:33:14;34.00;;;13.10;;
35223;SDS011;21367;51.930;8.112;2022-12-18T12:38:30;29.13;;;12.00;;
35223;SDS011;21367;51.930;8.112;2022-12-18T12:43:39;35.90;;;12.10;;
35223;SDS011;21367;51.930;8.112;2022-12-18T12:48:50;29.63;;;11.15;;
35223;SDS011;21367;51.930;8.112;2022-12-18T12:53:56;27.23;;;9.88;;
35223;SDS011;21367;51.930;8.112;2022-12-18T12:59:04;23.67;;;9.55;;
35223;SDS011;21367;51.930;8.112;2022-12-18T13:04:21;29.52;;;10.77;;
35223;SDS011;21367;51.930;8.112;2022-12-18T13:09:34;27.58;;;10.88;;
35223;SDS011;21367;51.930;8.112;2022-12-18T13:15:04;27.17;;;11.70;;
35223;SDS011;21367;51.930;8.112;2022-12-18T13:20:19;28.38;;;11.23;;
35223;SDS011;21367;51.930;8.112;2022-12-18T13:30:50;26.75;;;10.18;;
35223;SDS011;21367;51.930;8.112;2022-12-18T13:36:04;27.38;;;10.30;;
35223;SDS011;21367;51.930;8.112;2022-12-18T13:41:21;22.50;;;9.32;;
35223;SDS011;21367;51.930;8.112;2022-12-18T13:46:27;21.15;;;8.52;;
35223;SDS011;21367;51.930;8.112;2022-12-18T13:51:35;23.48;;;8.23;;
35223;SDS011;21367;51.930;8.112;2022-12-18T13:56:42;21.80;;;8.13;;
35223;SDS011;21367;51.930;8.112;2022-12-18T14:01:50;24.10;;;8.82;;
35223;SDS011;21367;51.930;8.112;2022-12-18T14:07:01;35.78;;;9.23;;
35223;SDS011;21367;51.930;8.112;2022-12-18T14:12:11;26.48;;;9.20;;
35223;SDS011;21367;51.930;8.112;2022-12-18T14:17:31;24.13;;;10.95;;
35223;SDS011;21367;51.930;8.112;2022-12-18T14:22:38;25.27;;;12.88;;
35223;SDS011;21367;51.930;8.112;2022-12-18T14:27:47;29.42;;;11.68;;
35223;SDS011;21367;51.930;8.112;2022-12-18T14:33:00;28.10;;;11.63;;
35223;SDS011;21367;51.930;8.112;2022-12-18T14:38:15;30.80;;;11.55;;
35223;SDS011;21367;51.930;8.112;2022-12-18T14:43:25;47.00;;;13.20;;
35223;SDS011;21367;51.930;8.112;2022-12-18T14:48:33;28.30;;;10.35;;
35223;SDS011;21367;51.930;8.112;2022-12-18T14:53:43;26.75;;;9.85;;
35223;SDS011;21367;51.930;8.112;2022-12-18T14:58:50;31.60;;;11.88;;
35223;SDS011;21367;51.930;8.112;2022-12-18T15:03:57;45.53;;;13.45;;
35223;SDS011;21367;51.930;8.112;2022-12-18T15:09:05;24.97;;;8.93;;
35223;SDS011;21367;51.930;8.112;2022-12-18T15:14:34;20.08;;;8.27;;
35223;SDS011;21367;51.930;8.112;2022-12-18T15:19:42;19.17;;;7.00;;
35223;SDS011;21367;51.930;8.112;2022-12-18T15:24:50;26.38;;;8.60;;
35223;SDS011;21367;51.930;8.112;2022-12-18T15:35:24;27.48;;;9.68;;
35223;SDS011;21367;51.930;8.112;2022-12-18T15:40:30;28.52;;;9.88;;
35223;SDS011;21367;51.930;8.112;2022-12-18T15:45:36;23.45;;;8.38;;
35223;SDS011;21367;51.930;8.112;2022-12-18T15:50:40;24.75;;;7.95;;
35223;SDS011;21367;51.930;8.112;2022-12-18T15:55:46;27.27;;;7.97;;
35223;SDS011;21367;51.930;8.112;2022-12-18T16:01:03;24.15;;;7.97;;
35223;SDS011;21367;51.930;8.112;2022-12-18T16:06:08;29.77;;;8.85;;
35223;SDS011;21367;51.930;8.112;2022-12-18T16:11:20;28.13;;;8.60;;
35223;SDS011;21367;51.930;8.112;2022-12-18T16:16:38;28.58;;;9.15;;
35223;SDS011;21367;51.930;8.112;2022-12-18T16:21:42;25.13;;;7.68;;
35223;SDS011;21367;51.930;8.112;2022-12-18T16:26:48;26.98;;;8.43;;
35223;SDS011;21367;51.930;8.112;2022-12-18T16:31:55;21.77;;;8.48;;
35223;SDS011;21367;51.930;8.112;2022-12-18T16:37:00;32.95;;;10.32;;
35223;SDS011;21367;51.930;8.112;2022-12-18T16:42:08;34.90;;;10.03;;
35223;SDS011;21367;51.930;8.112;2022-12-18T16:47:16;29.85;;;10.30;;
35223;SDS011;21367;51.930;8.112;2022-12-18T16:52:23;25.63;;;10.30;;
35223;SDS011;21367;51.930;8.112;2022-12-18T16:57:30;27.87;;;10.87;;
35223;SDS011;21367;51.930;8.112;2022-12-18T17:02:35;26.95;;;10.55;;
35223;SDS011;21367;51.930;8.112;2022-12-18T17:07:39;32.78;;;12.70;;
35223;SDS011;21367;51.930;8.112;2022-12-18T17:12:47;35.80;;;12.38;;
35223;SDS011;21367;51.930;8.112;2022-12-18T17:17:53;30.80;;;11.43;;
35223;SDS011;21367;51.930;8.112;2022-12-18T17:22:58;39.58;;;12.52;;
35223;SDS011;21367;51.930;8.112;2022-12-18T17:28:04;36.00;;;12.20;;
35223;SDS011;21367;51.930;8.112;2022-12-18T17:33:07;38.83;;;14.15;;
35223;SDS011;21367;51.930;8.112;2022-12-18T17:38:12;37.65;;;14.32;;
35223;SDS011;21367;51.930;8.112;2022-12-18T17:43:20;44.25;;;15.32;;
35223;SDS011;21367;51.930;8.112;2022-12-18T17:48:24;37.60;;;13.70;;
35223;SDS011;21367;51.930;8.112;2022-12-18T17:53:29;42.70;;;14.20;;
35223;SDS011;21367;51.930;8.112;2022-12-18T17:58:36;46.25;;;15.65;;
35223;SDS011;21367;51.930;8.112;2022-12-18T18:03:42;45.67;;;15.88;;
35223;SDS011;21367;51.930;8.112;2022-12-18T18:08:46;41.88;;;16.50;;
35223;SDS011;21367;51.930;8.112;2022-12-18T18:13:53;43.10;;;16.95;;
35223;SDS011;21367;51.930;8.112;2022-12-18T18:19:06;54.70;;;18.08;;
35223;SDS011;21367;51.930;8.112;2022-12-18T18:24:11;55.17;;;21.40;;
35223;SDS011;21367;51.930;8.112;2022-12-18T18:29:20;62.75;;;20.30;;
35223;SDS011;21367;51.930;8.112;2022-12-18T18:34:25;56.75;;;19.13;;
35223;SDS011;21367;51.930;8.112;2022-12-18T18:39:30;64.55;;;20.08;;
35223;SDS011;21367;51.930;8.112;2022-12-18T18:44:36;57.55;;;19.75;;
35223;SDS011;21367;51.930;8.112;2022-12-18T18:49:40;64.28;;;19.23;;
35223;SDS011;21367;51.930;8.112;2022-12-18T18:54:45;59.50;;;20.80;;
35223;SDS011;21367;51.930;8.112;2022-12-18T18:59:52;53.37;;;19.50;;
35223;SDS011;21367;51.930;8.112;2022-12-18T19:09:58;67.57;;;24.60;;
35223;SDS011;21367;51.930;8.112;2022-12-18T19:15:06;64.80;;;23.90;;
35223;SDS011;21367;51.930;8.112;2022-12-18T19:20:10;64.68;;;23.23;;
35223;SDS011;21367;51.930;8.112;2022-12-18T19:25:14;62.05;;;21.52;;
35223;SDS011;21367;51.930;8.112;2022-12-18T19:30:21;67.55;;;23.13;;
35223;SDS011;21367;51.930;8.112;2022-12-18T19:35:27;67.68;;;21.70;;
35223;SDS011;21367;51.930;8.112;2022-12-18T19:40:32;70.65;;;22.90;;
35223;SDS011;21367;51.930;8.112;2022-12-18T19:45:38;75.47;;;23.10;;
35223;SDS011;21367;51.930;8.112;2022-12-18T19:50:42;71.78;;;24.80;;
35223;SDS011;21367;51.930;8.112;2022-12-18T19:55:46;65.45;;;23.23;;
35223;SDS011;21367;51.930;8.112;2022-12-18T20:00:52;64.80;;;22.52;;
35223;SDS011;21367;51.930;8.112;2022-12-18T20:06:06;74.15;;;23.83;;
35223;SDS011;21367;51.930;8.112;2022-12-18T20:11:10;78.00;;;25.70;;
35223;SDS011;21367;51.930;8.112;2022-12-18T20:16:17;70.35;;;24.92;;
35223;SDS011;21367;51.930;8.112;2022-12-18T20:21:21;73.55;;;25.02;;
35223;SDS011;21367;51.930;8.112;2022-12-18T20:26:25;73.88;;;22.38;;
35223;SDS011;21367;51.930;8.112;2022-12-18T20:31:33;78.25;;;26.38;;
35223;SDS011;21367;51.930;8.112;2022-12-18T20:36:36;72.78;;;25.52;;
35223;SDS011;21367;51.930;8.112;2022-12-18T20:41:40;71.85;;;23.63;;
35223;SDS011;21367;51.930;8.112;2022-12-18T20:46:47;75.47;;;24.13;;
35223;SDS011;21367;51.930;8.112;2022-12-18T20:51:52;74.03;;;24.67;;
35223;SDS011;21367;51.930;8.112;2022-12-18T20:56:57;79.70;;;25.90;;
35223;SDS011;21367;51.930;8.112;2022-12-18T21:02:04;79.88;;;25.95;;
35223;SDS011;21367;51.930;8.112;2022-12-18T21:07:09;81.38;;;25.65;;
35223;SDS011;21367;51.930;8.112;2022-12-18T21:12:13;83.07;;;24.17;;
35223;SDS011;21367;51.930;8.112;2022-12-18T21:17:33;80.32;;;25.98;;
35223;SDS011;21367;51.930;8.112;2022-12-18T21:22:37;74.15;;;25.80;;
35223;SDS011;21367;51.930;8.112;2022-12-18T21:27:45;81.97;;;25.77;;
35223;SDS011;21367;51.930;8.112;2022-12-18T21:32:52;78.47;;;24.73;;
35223;SDS011;21367;51.930;8.112;2022-12-18T21:37:56;77.80;;;24.63;;
35223;SDS011;21367;51.930;8.112;2022-12-18T21:43:00;85.88;;;26.13;;
35223;SDS011;21367;51.930;8.112;2022-12-18T21:48:19;80.07;;;24.65;;
35223;SDS011;21367;51.930;8.112;2022-12-18T21:53:24;79.22;;;24.05;;
35223;SDS011;21367;51.930;8.112;2022-12-18T21:58:28;70.68;;;22.67;;
35223;SDS011;21367;51.930;8.112;2022-12-18T22:03:34;75.93;;;23.48;;
35223;SDS011;21367;51.930;8.112;2022-12-18T22:08:38;82.65;;;24.75;;
35223;SDS011;21367;51.930;8.112;2022-12-18T22:13:41;85.80;;;24.55;;
35223;SDS011;21367;51.930;8.112;2022-12-18T22:18:48;78.68;;;24.75;;
35223;SDS011;21367;51.930;8.112;2022-12-18T22:23:56;82.97;;;27.35;;
35223;SDS011;21367;51.930;8.112;2022-12-18T22:29:01;76.47;;;24.73;;
35223;SDS011;21367;51.930;8.112;2022-12-18T22:34:20;79.22;;;24.65;;
35223;SDS011;21367;51.930;8.112;2022-12-18T22:39:25;75.40;;;24.58;;
35223;SDS011;21367;51.930;8.112;2022-12-18T22:44:29;82.83;;;25.30;;
35223;SDS011;21367;51.930;8.112;2022-12-18T22:49:36;81.50;;;25.75;;
35223;SDS011;21367;51.930;8.112;2022-12-18T22:54:41;72.80;;;25.85;;
35223;SDS011;21367;51.930;8.112;2022-12-18T22:59:46;78.47;;;25.90;;
35223;SDS011;21367;51.930;8.112;2022-12-18T23:04:52;81.55;;;25.92;;
35223;SDS011;21367;51.930;8.112;2022-12-18T23:09:55;78.40;;;25.40;;
35223;SDS011;21367;51.930;8.112;2022-12-18T23:14:59;82.55;;;27.52;;
35223;SDS011;21367;51.930;8.112;2022-12-18T23:20:09;96.00;;;27.10;;
35223;SDS011;21367;51.930;8.112;2022-12-18T23:25:13;90.38;;;28.77;;
35223;SDS011;21367;51.930;8.112;2022-12-18T23:30:17;97.75;;;27.80;;
35223;SDS011;21367;51.930;8.112;2022-12-18T23:35:23;96.03;;;28.45;;
35223;SDS011;21367;51.930;8.112;2022-12-18T23:40:27;96.75;;;27.58;;
35223;SDS011;21367;51.930;8.112;2022-12-18T23:45:35;89.65;;;26.60;;
35223;SDS011;21367;51.930;8.112;2022-12-18T23:50:42;83.47;;;26.13;;
35223;SDS011;21367;51.930;8.112;2022-12-18T23:55:46;92.55;;;27.50;;
